sensor_id;sensor_type;location;lat;lon;timestamp;temperature;humidity
13998;DHT22;7074;51.508;7.018;2022-12-07T00:00:52;7.30;99.90
13998;DHT22;7074;51.508;7.018;2022-12-07T00:03:19;7.30;99.90
13998;DHT22;7074;51.508;7.018;2022-12-07T00:05:46;7.30;99.90
13998;DHT22;7074;51.508;7.018;2022-12-07T00:08:14;7.40;99.90
13998;DHT22;7074;51.508;7.018;2022-12-07T00:10:43;7.40;99.90
13998;DHT22;7074;51.508;7.018;2022-12-07T00:13:10;7.40;99.90
13998;DHT22;7074;51.508;7.018;2022-12-07T00:15:37;7.30;99.90
13998;DHT22;7074;51.508;7.018;2022-12-07T00:18:04;7.40;99.90
13998;DHT22;7074;51.508;7.018;2022-12-07T00:20:32;7.40;99.90
13998;DHT22;7074;51.508;7.018;2022-12-07T00:23:00;7.30;99.90
13998;DHT22;7074;51.508;7.018;2022-12-07T00:25:27;7.30;99.90
13998;DHT22;7074;51.508;7.018;2022-12-07T00:27:56;7.30;99.90
13998;DHT22;7074;51.508;7.018;2022-12-07T00:30:24;7.40;99.90
13998;DHT22;7074;51.508;7.018;2022-12-07T00:32:51;7.40;99.90
13998;DHT22;7074;51.508;7.018;2022-12-07T00:35:18;7.40;99.90
13998;DHT22;7074;51.508;7.018;2022-12-07T00:37:46;7.30;99.90
13998;DHT22;7074;51.508;7.018;2022-12-07T00:40:19;7.40;99.90
13998;DHT22;7074;51.508;7.018;2022-12-07T00:42:50;7.40;99.90
13998;DHT22;7074;51.508;7.018;2022-12-07T00:45:31;7.30;99.90
13998;DHT22;7074;51.508;7.018;2022-12-07T00:48:03;7.40;99.90
13998;DHT22;7074;51.508;7.018;2022-12-07T00:50:31;7.40;99.90
13998;DHT22;7074;51.508;7.018;2022-12-07T00:53:01;7.40;99.90
13998;DHT22;7074;51.508;7.018;2022-12-07T00:55:33;7.40;99.90
13998;DHT22;7074;51.508;7.018;2022-12-07T00:58:00;7.40;99.90
13998;DHT22;7074;51.508;7.018;2022-12-07T01:00:28;7.40;99.90
13998;DHT22;7074;51.508;7.018;2022-12-07T01:03:03;7.40;99.90
13998;DHT22;7074;51.508;7.018;2022-12-07T01:05:35;7.40;99.90
13998;DHT22;7074;51.508;7.018;2022-12-07T01:08:03;7.40;99.90
13998;DHT22;7074;51.508;7.018;2022-12-07T01:10:31;7.40;99.90
13998;DHT22;7074;51.508;7.018;2022-12-07T01:12:58;7.40;99.90
13998;DHT22;7074;51.508;7.018;2022-12-07T01:15:26;7.40;99.90
13998;DHT22;7074;51.508;7.018;2022-12-07T01:17:53;7.40;99.90
13998;DHT22;7074;51.508;7.018;2022-12-07T01:20:23;7.40;99.90
13998;DHT22;7074;51.508;7.018;2022-12-07T01:22:50;7.40;99.90
13998;DHT22;7074;51.508;7.018;2022-12-07T01:25:17;7.40;99.90
13998;DHT22;7074;51.508;7.018;2022-12-07T01:27:44;7.40;99.90
13998;DHT22;7074;51.508;7.018;2022-12-07T01:30:13;7.40;99.90
13998;DHT22;7074;51.508;7.018;2022-12-07T01:32:40;7.40;99.90
13998;DHT22;7074;51.508;7.018;2022-12-07T01:35:07;7.40;99.90
13998;DHT22;7074;51.508;7.018;2022-12-07T01:37:37;7.40;99.90
13998;DHT22;7074;51.508;7.018;2022-12-07T01:40:07;7.40;99.90
13998;DHT22;7074;51.508;7.018;2022-12-07T01:42:34;7.40;99.90
13998;DHT22;7074;51.508;7.018;2022-12-07T01:48:14;7.30;99.90
13998;DHT22;7074;51.508;7.018;2022-12-07T01:50:44;7.30;99.90
13998;DHT22;7074;51.508;7.018;2022-12-07T01:53:18;7.30;99.90
13998;DHT22;7074;51.508;7.018;2022-12-07T01:55:50;7.30;99.90
13998;DHT22;7074;51.508;7.018;2022-12-07T01:58:19;7.30;99.90
13998;DHT22;7074;51.508;7.018;2022-12-07T02:00:50;7.30;99.90
13998;DHT22;7074;51.508;7.018;2022-12-07T02:03:21;7.30;99.90
13998;DHT22;7074;51.508;7.018;2022-12-07T02:05:49;7.30;99.90
13998;DHT22;7074;51.508;7.018;2022-12-07T02:08:18;7.30;99.90
13998;DHT22;7074;51.508;7.018;2022-12-07T02:10:46;7.20;99.90
13998;DHT22;7074;51.508;7.018;2022-12-07T02:13:16;7.30;99.90
13998;DHT22;7074;51.508;7.018;2022-12-07T02:15:55;7.30;99.90
13998;DHT22;7074;51.508;7.018;2022-12-07T02:18:32;7.20;99.90
13998;DHT22;7074;51.508;7.018;2022-12-07T02:21:06;7.20;99.90
13998;DHT22;7074;51.508;7.018;2022-12-07T02:23:57;7.20;99.90
13998;DHT22;7074;51.508;7.018;2022-12-07T02:29:34;7.20;99.90
13998;DHT22;7074;51.508;7.018;2022-12-07T02:32:06;7.20;99.90
13998;DHT22;7074;51.508;7.018;2022-12-07T02:34:42;7.20;99.90
13998;DHT22;7074;51.508;7.018;2022-12-07T02:37:19;7.20;99.90
13998;DHT22;7074;51.508;7.018;2022-12-07T02:39:51;7.20;99.90
13998;DHT22;7074;51.508;7.018;2022-12-07T02:42:33;7.20;99.90
13998;DHT22;7074;51.508;7.018;2022-12-07T02:45:05;7.10;99.90
13998;DHT22;7074;51.508;7.018;2022-12-07T02:47:34;7.10;99.90
13998;DHT22;7074;51.508;7.018;2022-12-07T02:50:04;7.10;99.90
13998;DHT22;7074;51.508;7.018;2022-12-07T02:52:32;7.10;99.90
13998;DHT22;7074;51.508;7.018;2022-12-07T02:54:59;7.10;99.90
13998;DHT22;7074;51.508;7.018;2022-12-07T02:57:40;7.00;99.90
13998;DHT22;7074;51.508;7.018;2022-12-07T03:00:13;7.10;99.90
13998;DHT22;7074;51.508;7.018;2022-12-07T03:02:49;7.10;99.90
13998;DHT22;7074;51.508;7.018;2022-12-07T03:08:21;7.10;99.90
13998;DHT22;7074;51.508;7.018;2022-12-07T03:10:57;7.00;99.90
13998;DHT22;7074;51.508;7.018;2022-12-07T03:13:33;7.00;99.90
13998;DHT22;7074;51.508;7.018;2022-12-07T03:16:09;7.00;99.90
13998;DHT22;7074;51.508;7.018;2022-12-07T03:18:40;7.00;99.90
13998;DHT22;7074;51.508;7.018;2022-12-07T03:21:14;6.90;99.90
13998;DHT22;7074;51.508;7.018;2022-12-07T03:23:45;6.90;99.90
13998;DHT22;7074;51.508;7.018;2022-12-07T03:26:15;6.90;99.90
13998;DHT22;7074;51.508;7.018;2022-12-07T03:28:50;6.80;99.90
13998;DHT22;7074;51.508;7.018;2022-12-07T03:31:21;6.80;99.90
13998;DHT22;7074;51.508;7.018;2022-12-07T03:33:53;6.70;99.90
13998;DHT22;7074;51.508;7.018;2022-12-07T03:36:29;6.80;99.90
13998;DHT22;7074;51.508;7.018;2022-12-07T03:39:06;6.70;99.90
13998;DHT22;7074;51.508;7.018;2022-12-07T03:41:37;6.80;99.90
13998;DHT22;7074;51.508;7.018;2022-12-07T03:44:07;6.70;99.90
13998;DHT22;7074;51.508;7.018;2022-12-07T03:46:42;6.80;99.90
13998;DHT22;7074;51.508;7.018;2022-12-07T03:49:16;6.80;99.90
13998;DHT22;7074;51.508;7.018;2022-12-07T03:51:51;6.80;99.90
13998;DHT22;7074;51.508;7.018;2022-12-07T03:54:23;6.80;99.90
13998;DHT22;7074;51.508;7.018;2022-12-07T03:56:52;6.80;99.90
13998;DHT22;7074;51.508;7.018;2022-12-07T03:59:21;6.80;99.90
13998;DHT22;7074;51.508;7.018;2022-12-07T04:01:54;6.80;99.90
13998;DHT22;7074;51.508;7.018;2022-12-07T04:04:23;6.60;99.90
13998;DHT22;7074;51.508;7.018;2022-12-07T04:06:51;6.70;99.90
13998;DHT22;7074;51.508;7.018;2022-12-07T04:09:19;6.70;99.90
13998;DHT22;7074;51.508;7.018;2022-12-07T04:11:47;6.70;99.90
13998;DHT22;7074;51.508;7.018;2022-12-07T04:14:15;6.70;99.90
13998;DHT22;7074;51.508;7.018;2022-12-07T04:16:46;6.70;99.90
13998;DHT22;7074;51.508;7.018;2022-12-07T04:19:15;6.70;99.90
13998;DHT22;7074;51.508;7.018;2022-12-07T04:21:43;6.70;99.90
13998;DHT22;7074;51.508;7.018;2022-12-07T04:24:11;6.80;99.90
13998;DHT22;7074;51.508;7.018;2022-12-07T04:26:39;6.80;99.90
13998;DHT22;7074;51.508;7.018;2022-12-07T04:29:07;6.70;99.90
13998;DHT22;7074;51.508;7.018;2022-12-07T04:31:34;6.70;99.90
13998;DHT22;7074;51.508;7.018;2022-12-07T04:34:02;6.70;99.90
13998;DHT22;7074;51.508;7.018;2022-12-07T04:36:33;6.60;99.90
13998;DHT22;7074;51.508;7.018;2022-12-07T04:39:01;6.60;99.90
13998;DHT22;7074;51.508;7.018;2022-12-07T04:41:28;6.60;99.90
13998;DHT22;7074;51.508;7.018;2022-12-07T04:43:56;6.60;99.90
13998;DHT22;7074;51.508;7.018;2022-12-07T04:46:25;6.50;99.90
13998;DHT22;7074;51.508;7.018;2022-12-07T04:48:53;6.60;99.90
13998;DHT22;7074;51.508;7.018;2022-12-07T04:51:23;6.50;99.90
13998;DHT22;7074;51.508;7.018;2022-12-07T04:53:54;6.50;99.90
13998;DHT22;7074;51.508;7.018;2022-12-07T04:56:23;6.50;99.90
13998;DHT22;7074;51.508;7.018;2022-12-07T04:58:52;6.50;99.90
13998;DHT22;7074;51.508;7.018;2022-12-07T05:01:21;6.40;99.90
13998;DHT22;7074;51.508;7.018;2022-12-07T05:03:49;6.50;99.90
13998;DHT22;7074;51.508;7.018;2022-12-07T05:06:17;6.50;99.90
13998;DHT22;7074;51.508;7.018;2022-12-07T05:08:47;6.50;99.90
13998;DHT22;7074;51.508;7.018;2022-12-07T05:11:16;6.80;99.90
13998;DHT22;7074;51.508;7.018;2022-12-07T05:13:59;6.70;99.90
13998;DHT22;7074;51.508;7.018;2022-12-07T05:16:28;6.70;99.90
13998;DHT22;7074;51.508;7.018;2022-12-07T05:19:17;6.70;99.90
13998;DHT22;7074;51.508;7.018;2022-12-07T05:21:57;6.70;99.90
13998;DHT22;7074;51.508;7.018;2022-12-07T05:24:25;6.80;99.90
13998;DHT22;7074;51.508;7.018;2022-12-07T05:26:54;6.80;99.90
13998;DHT22;7074;51.508;7.018;2022-12-07T05:29:22;6.70;99.90
13998;DHT22;7074;51.508;7.018;2022-12-07T05:31:49;6.70;99.90
13998;DHT22;7074;51.508;7.018;2022-12-07T05:34:16;6.70;99.90
13998;DHT22;7074;51.508;7.018;2022-12-07T05:36:43;6.70;99.90
13998;DHT22;7074;51.508;7.018;2022-12-07T05:39:11;6.60;99.90
13998;DHT22;7074;51.508;7.018;2022-12-07T05:41:38;6.60;99.90
13998;DHT22;7074;51.508;7.018;2022-12-07T05:44:24;6.60;99.90
13998;DHT22;7074;51.508;7.018;2022-12-07T05:46:51;6.60;99.90
13998;DHT22;7074;51.508;7.018;2022-12-07T05:49:19;6.60;99.90
13998;DHT22;7074;51.508;7.018;2022-12-07T05:51:46;6.60;99.90
13998;DHT22;7074;51.508;7.018;2022-12-07T05:54:13;6.50;99.90
13998;DHT22;7074;51.508;7.018;2022-12-07T05:56:40;6.50;99.90
13998;DHT22;7074;51.508;7.018;2022-12-07T05:59:08;6.50;99.90
13998;DHT22;7074;51.508;7.018;2022-12-07T06:01:51;6.50;99.90
13998;DHT22;7074;51.508;7.018;2022-12-07T06:04:19;6.50;99.90
13998;DHT22;7074;51.508;7.018;2022-12-07T06:06:47;6.40;99.90
13998;DHT22;7074;51.508;7.018;2022-12-07T06:09:14;6.40;99.90
13998;DHT22;7074;51.508;7.018;2022-12-07T06:11:42;6.40;99.90
13998;DHT22;7074;51.508;7.018;2022-12-07T06:14:38;6.40;99.90
13998;DHT22;7074;51.508;7.018;2022-12-07T06:17:06;6.40;99.90
13998;DHT22;7074;51.508;7.018;2022-12-07T06:19:34;6.50;99.90
13998;DHT22;7074;51.508;7.018;2022-12-07T06:22:04;6.40;99.90
13998;DHT22;7074;51.508;7.018;2022-12-07T06:24:32;6.50;99.90
13998;DHT22;7074;51.508;7.018;2022-12-07T06:27:00;6.40;99.90
13998;DHT22;7074;51.508;7.018;2022-12-07T06:29:27;6.40;99.90
13998;DHT22;7074;51.508;7.018;2022-12-07T06:31:54;6.30;99.90
13998;DHT22;7074;51.508;7.018;2022-12-07T06:34:24;6.30;99.90
13998;DHT22;7074;51.508;7.018;2022-12-07T06:36:52;6.30;99.90
13998;DHT22;7074;51.508;7.018;2022-12-07T06:39:22;6.30;99.90
13998;DHT22;7074;51.508;7.018;2022-12-07T06:41:50;6.30;99.90
13998;DHT22;7074;51.508;7.018;2022-12-07T06:44:18;6.20;99.90
13998;DHT22;7074;51.508;7.018;2022-12-07T06:46:46;6.30;99.90
13998;DHT22;7074;51.508;7.018;2022-12-07T06:49:13;6.20;99.90
13998;DHT22;7074;51.508;7.018;2022-12-07T06:51:43;6.20;99.90
13998;DHT22;7074;51.508;7.018;2022-12-07T06:54:11;6.30;99.90
13998;DHT22;7074;51.508;7.018;2022-12-07T06:56:39;6.30;99.90
13998;DHT22;7074;51.508;7.018;2022-12-07T06:59:07;6.30;99.90
13998;DHT22;7074;51.508;7.018;2022-12-07T07:01:35;6.30;99.90
13998;DHT22;7074;51.508;7.018;2022-12-07T07:04:02;6.20;99.90
13998;DHT22;7074;51.508;7.018;2022-12-07T07:06:30;6.30;99.90
13998;DHT22;7074;51.508;7.018;2022-12-07T07:08:58;6.30;99.90
13998;DHT22;7074;51.508;7.018;2022-12-07T07:11:27;6.30;99.90
13998;DHT22;7074;51.508;7.018;2022-12-07T07:13:54;6.30;99.90
13998;DHT22;7074;51.508;7.018;2022-12-07T07:16:28;6.20;99.90
13998;DHT22;7074;51.508;7.018;2022-12-07T07:18:56;6.20;99.90
13998;DHT22;7074;51.508;7.018;2022-12-07T07:21:23;6.20;99.90
13998;DHT22;7074;51.508;7.018;2022-12-07T07:23:50;6.20;99.90
13998;DHT22;7074;51.508;7.018;2022-12-07T07:26:19;6.20;99.90
13998;DHT22;7074;51.508;7.018;2022-12-07T07:28:47;6.30;99.90
13998;DHT22;7074;51.508;7.018;2022-12-07T07:31:21;6.30;99.90
13998;DHT22;7074;51.508;7.018;2022-12-07T07:33:50;6.30;99.90
13998;DHT22;7074;51.508;7.018;2022-12-07T07:36:18;6.30;99.90
13998;DHT22;7074;51.508;7.018;2022-12-07T07:38:45;6.30;99.90
13998;DHT22;7074;51.508;7.018;2022-12-07T07:41:13;6.30;99.90
13998;DHT22;7074;51.508;7.018;2022-12-07T07:43:42;6.30;99.90
13998;DHT22;7074;51.508;7.018;2022-12-07T07:46:09;6.30;99.90
13998;DHT22;7074;51.508;7.018;2022-12-07T07:48:39;6.30;99.90
13998;DHT22;7074;51.508;7.018;2022-12-07T07:51:09;6.40;99.90
13998;DHT22;7074;51.508;7.018;2022-12-07T07:53:37;6.40;99.90
13998;DHT22;7074;51.508;7.018;2022-12-07T07:56:05;6.30;99.90
13998;DHT22;7074;51.508;7.018;2022-12-07T07:58:33;6.30;99.90
13998;DHT22;7074;51.508;7.018;2022-12-07T08:01:05;6.40;99.90
13998;DHT22;7074;51.508;7.018;2022-12-07T08:03:33;6.40;99.90
13998;DHT22;7074;51.508;7.018;2022-12-07T08:06:02;6.40;99.90
13998;DHT22;7074;51.508;7.018;2022-12-07T08:08:32;6.40;99.90
13998;DHT22;7074;51.508;7.018;2022-12-07T08:10:59;6.50;99.90
13998;DHT22;7074;51.508;7.018;2022-12-07T08:13:27;6.50;99.90
13998;DHT22;7074;51.508;7.018;2022-12-07T08:15:55;6.50;99.90
13998;DHT22;7074;51.508;7.018;2022-12-07T08:18:23;6.60;99.90
13998;DHT22;7074;51.508;7.018;2022-12-07T08:20:50;6.60;99.90
13998;DHT22;7074;51.508;7.018;2022-12-07T08:23:18;6.60;99.90
13998;DHT22;7074;51.508;7.018;2022-12-07T08:25:45;6.50;99.90
13998;DHT22;7074;51.508;7.018;2022-12-07T08:28:15;6.50;99.90
13998;DHT22;7074;51.508;7.018;2022-12-07T08:30:46;6.50;99.90
13998;DHT22;7074;51.508;7.018;2022-12-07T08:33:14;6.60;99.90
13998;DHT22;7074;51.508;7.018;2022-12-07T08:35:44;6.60;99.90
13998;DHT22;7074;51.508;7.018;2022-12-07T08:38:11;6.60;99.90
13998;DHT22;7074;51.508;7.018;2022-12-07T08:40:39;6.60;99.90
13998;DHT22;7074;51.508;7.018;2022-12-07T08:43:06;6.60;99.90
13998;DHT22;7074;51.508;7.018;2022-12-07T08:45:33;6.60;99.90
13998;DHT22;7074;51.508;7.018;2022-12-07T08:48:08;6.60;99.90
13998;DHT22;7074;51.508;7.018;2022-12-07T08:50:40;6.60;99.90
13998;DHT22;7074;51.508;7.018;2022-12-07T08:53:12;6.60;99.90
13998;DHT22;7074;51.508;7.018;2022-12-07T08:55:39;6.70;99.90
13998;DHT22;7074;51.508;7.018;2022-12-07T08:58:06;6.70;99.90
13998;DHT22;7074;51.508;7.018;2022-12-07T09:00:34;6.60;99.90
13998;DHT22;7074;51.508;7.018;2022-12-07T09:03:01;6.70;99.90
13998;DHT22;7074;51.508;7.018;2022-12-07T09:05:32;6.70;99.90
13998;DHT22;7074;51.508;7.018;2022-12-07T09:08:01;6.70;99.90
13998;DHT22;7074;51.508;7.018;2022-12-07T09:10:31;6.80;99.90
13998;DHT22;7074;51.508;7.018;2022-12-07T09:12:58;6.80;99.90
13998;DHT22;7074;51.508;7.018;2022-12-07T09:15:28;6.90;99.90
13998;DHT22;7074;51.508;7.018;2022-12-07T09:17:56;7.00;99.90
13998;DHT22;7074;51.508;7.018;2022-12-07T09:20:23;7.00;99.90
13998;DHT22;7074;51.508;7.018;2022-12-07T09:22:51;7.00;99.90
13998;DHT22;7074;51.508;7.018;2022-12-07T09:25:18;7.00;99.90
13998;DHT22;7074;51.508;7.018;2022-12-07T09:27:47;7.00;99.90
13998;DHT22;7074;51.508;7.018;2022-12-07T09:30:17;7.00;99.90
13998;DHT22;7074;51.508;7.018;2022-12-07T09:32:44;7.00;99.90
13998;DHT22;7074;51.508;7.018;2022-12-07T09:35:12;7.00;99.90
13998;DHT22;7074;51.508;7.018;2022-12-07T09:37:53;7.00;99.90
13998;DHT22;7074;51.508;7.018;2022-12-07T09:40:22;6.90;99.90
13998;DHT22;7074;51.508;7.018;2022-12-07T09:43:02;7.00;99.90
13998;DHT22;7074;51.508;7.018;2022-12-07T09:45:33;7.10;99.90
13998;DHT22;7074;51.508;7.018;2022-12-07T09:48:02;7.10;99.90
13998;DHT22;7074;51.508;7.018;2022-12-07T09:50:33;7.10;99.90
13998;DHT22;7074;51.508;7.018;2022-12-07T09:53:08;7.20;99.90
13998;DHT22;7074;51.508;7.018;2022-12-07T09:55:38;7.20;99.90
13998;DHT22;7074;51.508;7.018;2022-12-07T09:58:19;7.30;99.90
13998;DHT22;7074;51.508;7.018;2022-12-07T10:00:48;7.20;99.90
13998;DHT22;7074;51.508;7.018;2022-12-07T10:03:18;7.30;99.90
13998;DHT22;7074;51.508;7.018;2022-12-07T10:05:50;7.30;99.90
13998;DHT22;7074;51.508;7.018;2022-12-07T10:08:18;7.30;99.90
13998;DHT22;7074;51.508;7.018;2022-12-07T10:10:50;7.30;99.90
13998;DHT22;7074;51.508;7.018;2022-12-07T10:13:21;7.20;99.90
13998;DHT22;7074;51.508;7.018;2022-12-07T10:15:52;7.30;99.90
13998;DHT22;7074;51.508;7.018;2022-12-07T10:18:30;7.30;99.90
13998;DHT22;7074;51.508;7.018;2022-12-07T10:21:11;7.40;99.90
13998;DHT22;7074;51.508;7.018;2022-12-07T10:23:40;7.40;99.90
13998;DHT22;7074;51.508;7.018;2022-12-07T10:26:33;7.40;99.90
13998;DHT22;7074;51.508;7.018;2022-12-07T10:29:14;7.40;99.90
13998;DHT22;7074;51.508;7.018;2022-12-07T10:31:43;7.40;99.90
13998;DHT22;7074;51.508;7.018;2022-12-07T10:34:21;7.40;99.90
13998;DHT22;7074;51.508;7.018;2022-12-07T10:36:49;7.40;99.90
13998;DHT22;7074;51.508;7.018;2022-12-07T10:39:18;7.50;99.90
13998;DHT22;7074;51.508;7.018;2022-12-07T10:41:53;7.40;99.90
13998;DHT22;7074;51.508;7.018;2022-12-07T10:44:24;7.50;99.90
13998;DHT22;7074;51.508;7.018;2022-12-07T10:47:05;7.50;99.90
13998;DHT22;7074;51.508;7.018;2022-12-07T10:53:02;7.50;99.90
13998;DHT22;7074;51.508;7.018;2022-12-07T10:55:45;7.50;99.90
13998;DHT22;7074;51.508;7.018;2022-12-07T10:58:31;7.50;99.90
13998;DHT22;7074;51.508;7.018;2022-12-07T11:01:13;7.60;99.90
13998;DHT22;7074;51.508;7.018;2022-12-07T11:03:55;7.60;99.90
13998;DHT22;7074;51.508;7.018;2022-12-07T11:06:34;7.70;99.90
13998;DHT22;7074;51.508;7.018;2022-12-07T11:09:16;7.70;99.90
13998;DHT22;7074;51.508;7.018;2022-12-07T11:11:54;7.70;99.90
13998;DHT22;7074;51.508;7.018;2022-12-07T11:14:26;7.70;99.90
13998;DHT22;7074;51.508;7.018;2022-12-07T11:17:01;7.60;99.90
13998;DHT22;7074;51.508;7.018;2022-12-07T11:19:48;7.60;99.90
13998;DHT22;7074;51.508;7.018;2022-12-07T11:22:22;7.60;99.90
13998;DHT22;7074;51.508;7.018;2022-12-07T11:24:57;7.70;99.90
13998;DHT22;7074;51.508;7.018;2022-12-07T11:27:35;7.70;99.90
13998;DHT22;7074;51.508;7.018;2022-12-07T11:30:18;7.70;99.90
13998;DHT22;7074;51.508;7.018;2022-12-07T11:33:15;7.70;99.90
13998;DHT22;7074;51.508;7.018;2022-12-07T11:35:54;7.80;99.90
13998;DHT22;7074;51.508;7.018;2022-12-07T11:38:41;7.80;99.90
13998;DHT22;7074;51.508;7.018;2022-12-07T11:41:09;7.80;99.90
13998;DHT22;7074;51.508;7.018;2022-12-07T11:43:56;7.90;99.90
13998;DHT22;7074;51.508;7.018;2022-12-07T11:46:37;7.90;99.90
13998;DHT22;7074;51.508;7.018;2022-12-07T11:49:13;7.90;99.90
13998;DHT22;7074;51.508;7.018;2022-12-07T11:51:43;7.80;99.90
13998;DHT22;7074;51.508;7.018;2022-12-07T11:54:15;7.80;99.90
13998;DHT22;7074;51.508;7.018;2022-12-07T11:56:46;7.80;99.90
13998;DHT22;7074;51.508;7.018;2022-12-07T11:59:19;7.90;99.90
13998;DHT22;7074;51.508;7.018;2022-12-07T12:01:53;8.00;99.90
13998;DHT22;7074;51.508;7.018;2022-12-07T12:04:35;8.00;99.90
13998;DHT22;7074;51.508;7.018;2022-12-07T12:07:07;8.00;99.90
13998;DHT22;7074;51.508;7.018;2022-12-07T12:09:39;8.10;99.90
13998;DHT22;7074;51.508;7.018;2022-12-07T12:12:21;8.20;99.90
13998;DHT22;7074;51.508;7.018;2022-12-07T12:15:07;8.10;99.90
13998;DHT22;7074;51.508;7.018;2022-12-07T12:49:40;8.30;99.90
13998;DHT22;7074;51.508;7.018;2022-12-07T12:56:37;8.30;99.90
13998;DHT22;7074;51.508;7.018;2022-12-07T13:00:15;8.30;99.90
13998;DHT22;7074;51.508;7.018;2022-12-07T13:03:28;8.30;99.90
13998;DHT22;7074;51.508;7.018;2022-12-07T13:06:46;8.30;99.90
13998;DHT22;7074;51.508;7.018;2022-12-07T13:09:52;8.20;99.90
13998;DHT22;7074;51.508;7.018;2022-12-07T13:13:00;8.20;99.90
13998;DHT22;7074;51.508;7.018;2022-12-07T13:22:53;8.30;99.90
13998;DHT22;7074;51.508;7.018;2022-12-07T13:26:19;8.30;99.90
13998;DHT22;7074;51.508;7.018;2022-12-07T13:28:52;8.30;99.90
13998;DHT22;7074;51.508;7.018;2022-12-07T13:31:49;8.30;99.90
13998;DHT22;7074;51.508;7.018;2022-12-07T13:34:53;8.40;99.90
13998;DHT22;7074;51.508;7.018;2022-12-07T13:37:44;8.40;99.90
13998;DHT22;7074;51.508;7.018;2022-12-07T16:13:20;7.60;99.90
13998;DHT22;7074;51.508;7.018;2022-12-07T16:18:59;7.60;99.90
13998;DHT22;7074;51.508;7.018;2022-12-07T16:48:13;7.60;99.90
13998;DHT22;7074;51.508;7.018;2022-12-07T16:51:10;7.60;99.90
13998;DHT22;7074;51.508;7.018;2022-12-07T16:54:08;7.60;99.90
13998;DHT22;7074;51.508;7.018;2022-12-07T16:57:03;7.60;99.90
13998;DHT22;7074;51.508;7.018;2022-12-07T22:32:59;6.70;99.90
13998;DHT22;7074;51.508;7.018;2022-12-07T22:35:42;6.70;99.90
13998;DHT22;7074;51.508;7.018;2022-12-07T22:38:50;6.70;99.90
13998;DHT22;7074;51.508;7.018;2022-12-07T22:41:57;6.70;99.90
13998;DHT22;7074;51.508;7.018;2022-12-07T22:45:13;6.70;99.90
13998;DHT22;7074;51.508;7.018;2022-12-07T22:48:12;6.70;99.90
13998;DHT22;7074;51.508;7.018;2022-12-07T22:54:55;6.70;99.90
13998;DHT22;7074;51.508;7.018;2022-12-07T22:58:18;6.70;99.90
13998;DHT22;7074;51.508;7.018;2022-12-07T23:00:56;6.80;99.90
13998;DHT22;7074;51.508;7.018;2022-12-07T23:03:53;6.70;99.90
13998;DHT22;7074;51.508;7.018;2022-12-07T23:06:30;6.80;99.90
13998;DHT22;7074;51.508;7.018;2022-12-07T23:09:11;6.90;99.90
13998;DHT22;7074;51.508;7.018;2022-12-07T23:11:49;6.80;99.90
13998;DHT22;7074;51.508;7.018;2022-12-07T23:14:39;6.80;99.90
13998;DHT22;7074;51.508;7.018;2022-12-07T23:17:31;6.80;99.90
13998;DHT22;7074;51.508;7.018;2022-12-07T23:20:15;6.80;99.90
13998;DHT22;7074;51.508;7.018;2022-12-07T23:23:05;6.70;99.90
13998;DHT22;7074;51.508;7.018;2022-12-07T23:26:00;6.70;99.90
13998;DHT22;7074;51.508;7.018;2022-12-07T23:28:58;6.70;99.90
13998;DHT22;7074;51.508;7.018;2022-12-07T23:31:51;6.70;99.90
13998;DHT22;7074;51.508;7.018;2022-12-07T23:34:32;6.60;99.90
13998;DHT22;7074;51.508;7.018;2022-12-07T23:37:12;6.60;99.90
13998;DHT22;7074;51.508;7.018;2022-12-07T23:39:45;6.70;99.90
13998;DHT22;7074;51.508;7.018;2022-12-07T23:42:21;6.60;99.90
13998;DHT22;7074;51.508;7.018;2022-12-07T23:45:07;6.60;99.90
13998;DHT22;7074;51.508;7.018;2022-12-07T23:47:53;6.60;99.90
13998;DHT22;7074;51.508;7.018;2022-12-07T23:50:45;6.60;99.90
13998;DHT22;7074;51.508;7.018;2022-12-07T23:53:28;6.60;99.90
13998;DHT22;7074;51.508;7.018;2022-12-07T23:56:43;6.60;99.90
13998;DHT22;7074;51.508;7.018;2022-12-07T23:59:25;6.60;99.90
